sensor_id;sensor_type;location;lat;lon;timestamp;P1;durP1;ratioP1;P2;durP2;ratioP2
37221;SDS011;23119;51.842;-2.230;2023-04-01T00:01:21;2.42;;;0.32;;
37221;SDS011;23119;51.842;-2.230;2023-04-01T00:03:50;0.95;;;0.35;;
37221;SDS011;23119;51.842;-2.230;2023-04-01T00:06:16;1.33;;;0.55;;
37221;SDS011;23119;51.842;-2.230;2023-04-01T00:08:50;1.02;;;0.30;;
37221;SDS011;23119;51.842;-2.230;2023-04-01T00:11:17;1.15;;;0.30;;
37221;SDS011;23119;51.842;-2.230;2023-04-01T00:13:44;1.58;;;0.40;;
37221;SDS011;23119;51.842;-2.230;2023-04-01T00:16:10;1.15;;;0.22;;
37221;SDS011;23119;51.842;-2.230;2023-04-01T00:18:38;0.95;;;0.20;;
37221;SDS011;23119;51.842;-2.230;2023-04-01T00:21:07;3.60;;;0.30;;
37221;SDS011;23119;51.842;-2.230;2023-04-01T00:23:32;1.88;;;0.30;;
37221;SDS011;23119;51.842;-2.230;2023-04-01T00:25:59;0.45;;;0.20;;
37221;SDS011;23119;51.842;-2.230;2023-04-01T00:28:26;0.90;;;0.30;;
37221;SDS011;23119;51.842;-2.230;2023-04-01T00:30:52;1.13;;;0.30;;
37221;SDS011;23119;51.842;-2.230;2023-04-01T00:33:20;1.42;;;0.20;;
37221;SDS011;23119;51.842;-2.230;2023-04-01T00:35:46;2.38;;;0.30;;
37221;SDS011;23119;51.842;-2.230;2023-04-01T00:38:11;1.63;;;0.65;;
37221;SDS011;23119;51.842;-2.230;2023-04-01T00:40:42;1.50;;;0.30;;
37221;SDS011;23119;51.842;-2.230;2023-04-01T00:43:17;0.88;;;0.20;;
37221;SDS011;23119;51.842;-2.230;2023-04-01T00:45:48;1.25;;;0.20;;
37221;SDS011;23119;51.842;-2.230;2023-04-01T00:48:16;0.73;;;0.10;;
37221;SDS011;23119;51.842;-2.230;2023-04-01T00:50:47;0.30;;;0.10;;
37221;SDS011;23119;51.842;-2.230;2023-04-01T00:53:16;0.82;;;0.10;;
37221;SDS011;23119;51.842;-2.230;2023-04-01T00:55:46;1.05;;;0.30;;
37221;SDS011;23119;51.842;-2.230;2023-04-01T00:58:17;0.90;;;0.20;;
37221;SDS011;23119;51.842;-2.230;2023-04-01T01:00:45;1.85;;;0.17;;
37221;SDS011;23119;51.842;-2.230;2023-04-01T01:03:15;6.90;;;2.28;;
37221;SDS011;23119;51.842;-2.230;2023-04-01T01:10:48;0.43;;;0.10;;
37221;SDS011;23119;51.842;-2.230;2023-04-01T01:16:12;0.88;;;0.13;;
37221;SDS011;23119;51.842;-2.230;2023-04-01T01:18:58;1.88;;;0.10;;
37221;SDS011;23119;51.842;-2.230;2023-04-01T01:22:05;1.20;;;0.10;;
37221;SDS011;23119;51.842;-2.230;2023-04-01T01:27:19;0.95;;;0.13;;
37221;SDS011;23119;51.842;-2.230;2023-04-01T01:35:37;1.77;;;0.55;;
37221;SDS011;23119;51.842;-2.230;2023-04-01T01:38:15;0.77;;;0.10;;
37221;SDS011;23119;51.842;-2.230;2023-04-01T01:40:48;0.25;;;0.10;;
37221;SDS011;23119;51.842;-2.230;2023-04-01T01:43:21;0.60;;;0.13;;
37221;SDS011;23119;51.842;-2.230;2023-04-01T01:45:53;0.85;;;0.13;;
37221;SDS011;23119;51.842;-2.230;2023-04-01T01:48:22;3.13;;;0.20;;
37221;SDS011;23119;51.842;-2.230;2023-04-01T01:50:50;0.30;;;0.10;;
37221;SDS011;23119;51.842;-2.230;2023-04-01T01:53:17;0.60;;;0.20;;
37221;SDS011;23119;51.842;-2.230;2023-04-01T01:55:44;1.83;;;0.90;;
37221;SDS011;23119;51.842;-2.230;2023-04-01T01:58:13;0.60;;;0.20;;
37221;SDS011;23119;51.842;-2.230;2023-04-01T02:01:05;0.82;;;0.30;;
37221;SDS011;23119;51.842;-2.230;2023-04-01T02:03:37;1.23;;;0.40;;
37221;SDS011;23119;51.842;-2.230;2023-04-01T02:06:12;5.53;;;0.77;;
37221;SDS011;23119;51.842;-2.230;2023-04-01T02:08:53;2.88;;;0.60;;
37221;SDS011;23119;51.842;-2.230;2023-04-01T02:11:36;1.38;;;0.60;;
37221;SDS011;23119;51.842;-2.230;2023-04-01T02:16:43;2.20;;;0.60;;
37221;SDS011;23119;51.842;-2.230;2023-04-01T02:19:31;4.47;;;0.95;;
37221;SDS011;23119;51.842;-2.230;2023-04-01T02:22:03;2.75;;;0.70;;
37221;SDS011;23119;51.842;-2.230;2023-04-01T02:24:31;2.05;;;0.80;;
37221;SDS011;23119;51.842;-2.230;2023-04-01T02:27:00;3.38;;;0.68;;
37221;SDS011;23119;51.842;-2.230;2023-04-01T02:29:26;4.82;;;1.30;;
37221;SDS011;23119;51.842;-2.230;2023-04-01T02:31:52;3.35;;;0.90;;
37221;SDS011;23119;51.842;-2.230;2023-04-01T02:34:24;3.72;;;1.63;;
37221;SDS011;23119;51.842;-2.230;2023-04-01T02:36:51;2.42;;;0.80;;
37221;SDS011;23119;51.842;-2.230;2023-04-01T02:39:18;3.40;;;0.80;;
37221;SDS011;23119;51.842;-2.230;2023-04-01T02:41:45;4.40;;;1.00;;
37221;SDS011;23119;51.842;-2.230;2023-04-01T02:44:12;2.85;;;0.85;;
37221;SDS011;23119;51.842;-2.230;2023-04-01T02:46:39;2.35;;;0.80;;
37221;SDS011;23119;51.842;-2.230;2023-04-01T02:49:08;4.95;;;1.10;;
37221;SDS011;23119;51.842;-2.230;2023-04-01T02:51:34;2.22;;;0.70;;
37221;SDS011;23119;51.842;-2.230;2023-04-01T02:54:00;4.47;;;1.20;;
37221;SDS011;23119;51.842;-2.230;2023-04-01T02:56:26;4.75;;;0.93;;
37221;SDS011;23119;51.842;-2.230;2023-04-01T02:58:54;3.88;;;0.80;;
37221;SDS011;23119;51.842;-2.230;2023-04-01T03:01:20;2.80;;;0.80;;
37221;SDS011;23119;51.842;-2.230;2023-04-01T03:03:49;2.78;;;1.05;;
37221;SDS011;23119;51.842;-2.230;2023-04-01T03:06:15;4.75;;;0.90;;
37221;SDS011;23119;51.842;-2.230;2023-04-01T03:08:42;3.92;;;1.05;;
37221;SDS011;23119;51.842;-2.230;2023-04-01T03:11:08;2.30;;;0.80;;
37221;SDS011;23119;51.842;-2.230;2023-04-01T03:13:35;3.40;;;0.77;;
37221;SDS011;23119;51.842;-2.230;2023-04-01T03:16:01;4.15;;;1.00;;
37221;SDS011;23119;51.842;-2.230;2023-04-01T03:18:29;2.85;;;0.90;;
37221;SDS011;23119;51.842;-2.230;2023-04-01T03:21:11;5.13;;;1.17;;
37221;SDS011;23119;51.842;-2.230;2023-04-01T03:23:42;4.20;;;0.98;;
37221;SDS011;23119;51.842;-2.230;2023-04-01T03:26:07;5.40;;;0.90;;
37221;SDS011;23119;51.842;-2.230;2023-04-01T03:28:35;3.25;;;0.82;;
37221;SDS011;23119;51.842;-2.230;2023-04-01T03:31:01;7.50;;;0.80;;
37221;SDS011;23119;51.842;-2.230;2023-04-01T03:33:26;3.22;;;1.00;;
37221;SDS011;23119;51.842;-2.230;2023-04-01T03:35:52;3.90;;;1.15;;
37221;SDS011;23119;51.842;-2.230;2023-04-01T03:38:18;4.63;;;0.98;;
37221;SDS011;23119;51.842;-2.230;2023-04-01T03:40:44;4.57;;;1.25;;
37221;SDS011;23119;51.842;-2.230;2023-04-01T03:43:10;7.25;;;1.23;;
37221;SDS011;23119;51.842;-2.230;2023-04-01T03:45:43;3.35;;;1.20;;
37221;SDS011;23119;51.842;-2.230;2023-04-01T03:48:09;5.28;;;1.38;;
37221;SDS011;23119;51.842;-2.230;2023-04-01T03:50:35;4.60;;;1.50;;
37221;SDS011;23119;51.842;-2.230;2023-04-01T03:53:01;4.65;;;1.20;;
37221;SDS011;23119;51.842;-2.230;2023-04-01T03:55:27;3.28;;;1.20;;
37221;SDS011;23119;51.842;-2.230;2023-04-01T03:57:52;5.70;;;1.50;;
37221;SDS011;23119;51.842;-2.230;2023-04-01T04:00:18;4.70;;;1.23;;
37221;SDS011;23119;51.842;-2.230;2023-04-01T04:02:46;3.90;;;1.05;;
37221;SDS011;23119;51.842;-2.230;2023-04-01T04:05:12;5.15;;;1.30;;
37221;SDS011;23119;51.842;-2.230;2023-04-01T04:07:38;5.03;;;1.10;;
37221;SDS011;23119;51.842;-2.230;2023-04-01T04:10:04;3.72;;;1.17;;
37221;SDS011;23119;51.842;-2.230;2023-04-01T04:12:30;3.65;;;1.17;;
37221;SDS011;23119;51.842;-2.230;2023-04-01T04:14:59;6.63;;;1.30;;
37221;SDS011;23119;51.842;-2.230;2023-04-01T04:17:25;5.70;;;1.20;;
37221;SDS011;23119;51.842;-2.230;2023-04-01T04:19:51;3.88;;;1.17;;
37221;SDS011;23119;51.842;-2.230;2023-04-01T04:22:16;5.43;;;1.40;;
37221;SDS011;23119;51.842;-2.230;2023-04-01T04:24:44;4.68;;;1.67;;
37221;SDS011;23119;51.842;-2.230;2023-04-01T04:27:10;12.07;;;2.88;;
37221;SDS011;23119;51.842;-2.230;2023-04-01T04:29:36;9.80;;;2.45;;
37221;SDS011;23119;51.842;-2.230;2023-04-01T04:32:01;6.90;;;3.15;;
37221;SDS011;23119;51.842;-2.230;2023-04-01T04:34:27;9.02;;;3.22;;
37221;SDS011;23119;51.842;-2.230;2023-04-01T04:36:53;6.88;;;3.08;;
37221;SDS011;23119;51.842;-2.230;2023-04-01T04:39:19;9.48;;;3.83;;
37221;SDS011;23119;51.842;-2.230;2023-04-01T04:41:50;9.73;;;3.95;;
37221;SDS011;23119;51.842;-2.230;2023-04-01T04:44:17;9.05;;;4.63;;
37221;SDS011;23119;51.842;-2.230;2023-04-01T04:46:43;8.18;;;4.75;;
37221;SDS011;23119;51.842;-2.230;2023-04-01T04:49:09;12.05;;;5.53;;
37221;SDS011;23119;51.842;-2.230;2023-04-01T04:51:38;11.90;;;5.38;;
37221;SDS011;23119;51.842;-2.230;2023-04-01T04:54:05;12.63;;;5.15;;
37221;SDS011;23119;51.842;-2.230;2023-04-01T04:56:32;14.30;;;6.15;;
37221;SDS011;23119;51.842;-2.230;2023-04-01T04:58:57;15.82;;;7.28;;
37221;SDS011;23119;51.842;-2.230;2023-04-01T05:01:24;13.77;;;7.00;;
37221;SDS011;23119;51.842;-2.230;2023-04-01T05:03:55;14.73;;;6.78;;
37221;SDS011;23119;51.842;-2.230;2023-04-01T05:06:21;16.08;;;7.43;;
37221;SDS011;23119;51.842;-2.230;2023-04-01T05:08:54;17.67;;;7.75;;
37221;SDS011;23119;51.842;-2.230;2023-04-01T05:11:21;15.85;;;7.55;;
37221;SDS011;23119;51.842;-2.230;2023-04-01T05:13:47;16.40;;;8.10;;
37221;SDS011;23119;51.842;-2.230;2023-04-01T05:16:14;17.27;;;8.73;;
37221;SDS011;23119;51.842;-2.230;2023-04-01T05:18:44;19.15;;;8.00;;
37221;SDS011;23119;51.842;-2.230;2023-04-01T05:21:11;19.15;;;8.68;;
37221;SDS011;23119;51.842;-2.230;2023-04-01T05:23:38;17.10;;;8.73;;
37221;SDS011;23119;51.842;-2.230;2023-04-01T05:26:04;20.25;;;9.85;;
37221;SDS011;23119;51.842;-2.230;2023-04-01T05:28:31;18.25;;;9.27;;
37221;SDS011;23119;51.842;-2.230;2023-04-01T05:31:01;23.45;;;10.23;;
37221;SDS011;23119;51.842;-2.230;2023-04-01T05:33:28;25.25;;;11.23;;
37221;SDS011;23119;51.842;-2.230;2023-04-01T05:35:55;24.65;;;11.35;;
37221;SDS011;23119;51.842;-2.230;2023-04-01T05:38:21;24.90;;;11.48;;
37221;SDS011;23119;51.842;-2.230;2023-04-01T05:40:49;26.63;;;11.52;;
37221;SDS011;23119;51.842;-2.230;2023-04-01T05:43:14;27.30;;;11.00;;
37221;SDS011;23119;51.842;-2.230;2023-04-01T05:45:40;24.27;;;11.30;;
37221;SDS011;23119;51.842;-2.230;2023-04-01T05:48:06;26.38;;;11.80;;
37221;SDS011;23119;51.842;-2.230;2023-04-01T05:50:34;23.83;;;11.50;;
37221;SDS011;23119;51.842;-2.230;2023-04-01T05:53:00;24.73;;;11.57;;
37221;SDS011;23119;51.842;-2.230;2023-04-01T05:55:26;27.55;;;11.32;;
37221;SDS011;23119;51.842;-2.230;2023-04-01T05:57:51;24.30;;;11.80;;
37221;SDS011;23119;51.842;-2.230;2023-04-01T06:00:17;23.67;;;11.18;;
37221;SDS011;23119;51.842;-2.230;2023-04-01T06:02:44;26.83;;;12.07;;
37221;SDS011;23119;51.842;-2.230;2023-04-01T06:05:21;28.65;;;12.77;;
37221;SDS011;23119;51.842;-2.230;2023-04-01T06:07:55;25.13;;;11.90;;
37221;SDS011;23119;51.842;-2.230;2023-04-01T06:10:29;29.85;;;13.15;;
37221;SDS011;23119;51.842;-2.230;2023-04-01T06:13:12;28.60;;;13.10;;
37221;SDS011;23119;51.842;-2.230;2023-04-01T06:16:09;29.60;;;12.48;;
37221;SDS011;23119;51.842;-2.230;2023-04-01T06:18:59;28.60;;;13.05;;
37221;SDS011;23119;51.842;-2.230;2023-04-01T06:26:47;17.63;;;7.15;;
37221;SDS011;23119;51.842;-2.230;2023-04-01T06:29:49;16.02;;;6.45;;
37221;SDS011;23119;51.842;-2.230;2023-04-01T06:32:40;16.13;;;6.45;;
37221;SDS011;23119;51.842;-2.230;2023-04-01T06:35:16;18.10;;;7.38;;
37221;SDS011;23119;51.842;-2.230;2023-04-01T06:38:00;16.90;;;7.25;;
37221;SDS011;23119;51.842;-2.230;2023-04-01T06:43:25;16.70;;;6.97;;
37221;SDS011;23119;51.842;-2.230;2023-04-01T06:54:58;19.17;;;6.68;;
37221;SDS011;23119;51.842;-2.230;2023-04-01T07:00:03;13.88;;;6.28;;
37221;SDS011;23119;51.842;-2.230;2023-04-01T07:02:39;16.48;;;6.10;;
37221;SDS011;23119;51.842;-2.230;2023-04-01T07:05:11;15.07;;;5.28;;
37221;SDS011;23119;51.842;-2.230;2023-04-01T07:07:43;17.63;;;6.75;;
37221;SDS011;23119;51.842;-2.230;2023-04-01T07:10:33;13.60;;;6.35;;
37221;SDS011;23119;51.842;-2.230;2023-04-01T07:13:02;14.18;;;6.53;;
37221;SDS011;23119;51.842;-2.230;2023-04-01T07:15:41;14.20;;;6.57;;
37221;SDS011;23119;51.842;-2.230;2023-04-01T07:18:18;13.55;;;5.57;;
37221;SDS011;23119;51.842;-2.230;2023-04-01T07:20:53;10.70;;;5.47;;
37221;SDS011;23119;51.842;-2.230;2023-04-01T07:23:24;14.18;;;6.78;;
37221;SDS011;23119;51.842;-2.230;2023-04-01T07:26:00;10.40;;;5.05;;
37221;SDS011;23119;51.842;-2.230;2023-04-01T07:28:36;17.02;;;5.20;;
37221;SDS011;23119;51.842;-2.230;2023-04-01T07:34:12;8.90;;;4.60;;
37221;SDS011;23119;51.842;-2.230;2023-04-01T07:36:52;9.98;;;4.72;;
37221;SDS011;23119;51.842;-2.230;2023-04-01T07:39:30;10.45;;;5.63;;
37221;SDS011;23119;51.842;-2.230;2023-04-01T07:45:25;13.55;;;5.60;;
37221;SDS011;23119;51.842;-2.230;2023-04-01T07:52:51;11.48;;;5.22;;
37221;SDS011;23119;51.842;-2.230;2023-04-01T07:58:26;12.45;;;6.10;;
37221;SDS011;23119;51.842;-2.230;2023-04-01T08:04:19;13.35;;;7.70;;
37221;SDS011;23119;51.842;-2.230;2023-04-01T08:06:41;13.35;;;7.32;;
37221;SDS011;23119;51.842;-2.230;2023-04-01T08:20:39;13.00;;;7.03;;
37221;SDS011;23119;51.842;-2.230;2023-04-01T08:23:14;12.93;;;7.53;;
37221;SDS011;23119;51.842;-2.230;2023-04-01T08:25:48;11.10;;;6.70;;
37221;SDS011;23119;51.842;-2.230;2023-04-01T08:31:00;12.73;;;7.10;;
37221;SDS011;23119;51.842;-2.230;2023-04-01T08:33:40;13.70;;;6.63;;
37221;SDS011;23119;51.842;-2.230;2023-04-01T08:36:19;11.38;;;6.80;;
37221;SDS011;23119;51.842;-2.230;2023-04-01T08:53:31;15.02;;;7.63;;
37221;SDS011;23119;51.842;-2.230;2023-04-01T09:02:13;11.95;;;7.20;;
37221;SDS011;23119;51.842;-2.230;2023-04-01T09:26:35;10.88;;;6.93;;
37221;SDS011;23119;51.842;-2.230;2023-04-01T09:37:25;15.43;;;8.10;;
37221;SDS011;23119;51.842;-2.230;2023-04-01T09:40:33;11.52;;;6.50;;
37221;SDS011;23119;51.842;-2.230;2023-04-01T09:43:34;12.07;;;6.13;;
37221;SDS011;23119;51.842;-2.230;2023-04-01T09:46:40;11.82;;;6.40;;
37221;SDS011;23119;51.842;-2.230;2023-04-01T09:52:03;11.45;;;6.53;;
37221;SDS011;23119;51.842;-2.230;2023-04-01T09:54:56;10.95;;;6.50;;
37221;SDS011;23119;51.842;-2.230;2023-04-01T10:06:51;14.80;;;7.93;;
37221;SDS011;23119;51.842;-2.230;2023-04-01T10:20:58;12.93;;;7.57;;
37221;SDS011;23119;51.842;-2.230;2023-04-01T10:48:57;11.02;;;5.97;;
37221;SDS011;23119;51.842;-2.230;2023-04-01T10:54:36;11.35;;;6.30;;
37221;SDS011;23119;51.842;-2.230;2023-04-01T10:57:19;9.20;;;5.70;;
37221;SDS011;23119;51.842;-2.230;2023-04-01T11:05:49;6.22;;;4.15;;
37221;SDS011;23119;51.842;-2.230;2023-04-01T11:35:25;3.30;;;2.38;;
37221;SDS011;23119;51.842;-2.230;2023-04-01T11:40:45;7.47;;;2.90;;
37221;SDS011;23119;51.842;-2.230;2023-04-01T11:43:26;6.47;;;2.50;;
37221;SDS011;23119;51.842;-2.230;2023-04-01T11:54:00;5.50;;;1.70;;
37221;SDS011;23119;51.842;-2.230;2023-04-01T12:02:31;6.75;;;1.60;;
37221;SDS011;23119;51.842;-2.230;2023-04-01T12:20:59;3.92;;;1.20;;
37221;SDS011;23119;51.842;-2.230;2023-04-01T12:40:38;3.22;;;0.73;;
37221;SDS011;23119;51.842;-2.230;2023-04-01T12:54:47;1.77;;;0.60;;
37221;SDS011;23119;51.842;-2.230;2023-04-01T12:57:41;2.72;;;0.80;;
37221;SDS011;23119;51.842;-2.230;2023-04-01T13:03:12;2.42;;;0.80;;
37221;SDS011;23119;51.842;-2.230;2023-04-01T13:11:13;1.50;;;0.68;;
37221;SDS011;23119;51.842;-2.230;2023-04-01T13:14:04;2.25;;;0.70;;
37221;SDS011;23119;51.842;-2.230;2023-04-01T13:16:57;3.10;;;1.10;;
37221;SDS011;23119;51.842;-2.230;2023-04-01T13:28:05;2.33;;;1.25;;
37221;SDS011;23119;51.842;-2.230;2023-04-01T13:30:47;5.40;;;1.33;;
37221;SDS011;23119;51.842;-2.230;2023-04-01T13:33:48;2.90;;;1.17;;
37221;SDS011;23119;51.842;-2.230;2023-04-01T13:36:40;2.60;;;1.40;;
37221;SDS011;23119;51.842;-2.230;2023-04-01T13:42:41;4.00;;;1.52;;
37221;SDS011;23119;51.842;-2.230;2023-04-01T13:48:57;4.70;;;1.90;;
37221;SDS011;23119;51.842;-2.230;2023-04-01T13:57:07;5.95;;;1.77;;
37221;SDS011;23119;51.842;-2.230;2023-04-01T14:11:51;4.05;;;1.67;;
37221;SDS011;23119;51.842;-2.230;2023-04-01T14:23:07;6.30;;;1.70;;
37221;SDS011;23119;51.842;-2.230;2023-04-01T14:28:59;5.47;;;1.73;;
37221;SDS011;23119;51.842;-2.230;2023-04-01T14:43:01;3.08;;;0.80;;
37221;SDS011;23119;51.842;-2.230;2023-04-01T14:51:38;1.60;;;0.70;;
37221;SDS011;23119;51.842;-2.230;2023-04-01T14:54:16;1.10;;;0.40;;
37221;SDS011;23119;51.842;-2.230;2023-04-01T14:56:49;1.20;;;0.60;;
37221;SDS011;23119;51.842;-2.230;2023-04-01T15:01:50;1.50;;;0.40;;
37221;SDS011;23119;51.842;-2.230;2023-04-01T15:04:28;0.68;;;0.30;;
37221;SDS011;23119;51.842;-2.230;2023-04-01T15:09:42;2.25;;;0.30;;
37221;SDS011;23119;51.842;-2.230;2023-04-01T15:17:22;0.93;;;0.45;;
37221;SDS011;23119;51.842;-2.230;2023-04-01T15:25:45;2.67;;;0.40;;
37221;SDS011;23119;51.842;-2.230;2023-04-01T15:31:50;1.52;;;0.30;;
37221;SDS011;23119;51.842;-2.230;2023-04-01T15:34:37;1.05;;;0.32;;
37221;SDS011;23119;51.842;-2.230;2023-04-01T15:51:25;2.95;;;0.40;;
37221;SDS011;23119;51.842;-2.230;2023-04-01T15:56:53;0.52;;;0.30;;
37221;SDS011;23119;51.842;-2.230;2023-04-01T16:13:28;2.03;;;1.02;;
37221;SDS011;23119;51.842;-2.230;2023-04-01T16:22:18;1.73;;;0.40;;
37221;SDS011;23119;51.842;-2.230;2023-04-01T16:25:39;0.90;;;0.30;;
37221;SDS011;23119;51.842;-2.230;2023-04-01T16:31:00;1.13;;;0.40;;
37221;SDS011;23119;51.842;-2.230;2023-04-01T16:33:37;1.05;;;0.30;;
37221;SDS011;23119;51.842;-2.230;2023-04-01T16:39:01;1.00;;;0.40;;
37221;SDS011;23119;51.842;-2.230;2023-04-01T16:41:34;1.15;;;0.40;;
37221;SDS011;23119;51.842;-2.230;2023-04-01T16:44:21;1.50;;;0.40;;
37221;SDS011;23119;51.842;-2.230;2023-04-01T16:49:50;1.80;;;0.40;;
37221;SDS011;23119;51.842;-2.230;2023-04-01T16:58:07;2.17;;;0.30;;
37221;SDS011;23119;51.842;-2.230;2023-04-01T17:10:32;2.53;;;0.20;;
37221;SDS011;23119;51.842;-2.230;2023-04-01T17:16:06;0.80;;;0.40;;
37221;SDS011;23119;51.842;-2.230;2023-04-01T17:19:03;1.23;;;0.30;;
37221;SDS011;23119;51.842;-2.230;2023-04-01T17:32:44;2.67;;;0.70;;
37221;SDS011;23119;51.842;-2.230;2023-04-01T17:35:22;0.85;;;0.30;;
37221;SDS011;23119;51.842;-2.230;2023-04-01T17:41:00;0.93;;;0.20;;
37221;SDS011;23119;51.842;-2.230;2023-04-01T17:49:26;0.68;;;0.20;;
37221;SDS011;23119;51.842;-2.230;2023-04-01T17:52:10;0.30;;;0.10;;
37221;SDS011;23119;51.842;-2.230;2023-04-01T17:58:01;1.38;;;0.22;;
37221;SDS011;23119;51.842;-2.230;2023-04-01T18:00:46;1.33;;;0.40;;
37221;SDS011;23119;51.842;-2.230;2023-04-01T18:03:48;2.40;;;0.35;;
37221;SDS011;23119;51.842;-2.230;2023-04-01T18:06:18;0.55;;;0.20;;
37221;SDS011;23119;51.842;-2.230;2023-04-01T18:11:58;1.60;;;0.60;;
37221;SDS011;23119;51.842;-2.230;2023-04-01T18:17:43;1.48;;;0.20;;
37221;SDS011;23119;51.842;-2.230;2023-04-01T18:25:41;0.45;;;0.20;;
37221;SDS011;23119;51.842;-2.230;2023-04-01T18:30:58;0.90;;;0.10;;
37221;SDS011;23119;51.842;-2.230;2023-04-01T18:33:43;0.47;;;0.10;;
37221;SDS011;23119;51.842;-2.230;2023-04-01T18:39:03;1.67;;;0.20;;
37221;SDS011;23119;51.842;-2.230;2023-04-01T18:44:27;1.02;;;0.25;;
37221;SDS011;23119;51.842;-2.230;2023-04-01T18:50:22;0.28;;;0.10;;
37221;SDS011;23119;51.842;-2.230;2023-04-01T18:56:00;0.63;;;0.17;;
37221;SDS011;23119;51.842;-2.230;2023-04-01T18:58:35;1.45;;;0.20;;
37221;SDS011;23119;51.842;-2.230;2023-04-01T19:01:35;0.30;;;0.10;;
37221;SDS011;23119;51.842;-2.230;2023-04-01T19:09:57;0.22;;;0.10;;
37221;SDS011;23119;51.842;-2.230;2023-04-01T19:12:49;1.85;;;0.20;;
37221;SDS011;23119;51.842;-2.230;2023-04-01T19:21:29;1.10;;;0.20;;
37221;SDS011;23119;51.842;-2.230;2023-04-01T19:29:41;1.02;;;0.20;;
37221;SDS011;23119;51.842;-2.230;2023-04-01T19:35:23;1.58;;;0.30;;
37221;SDS011;23119;51.842;-2.230;2023-04-01T19:38:11;0.70;;;0.20;;
37221;SDS011;23119;51.842;-2.230;2023-04-01T19:40:57;11.77;;;1.70;;
37221;SDS011;23119;51.842;-2.230;2023-04-01T20:00:24;38.33;;;17.17;;
37221;SDS011;23119;51.842;-2.230;2023-04-01T20:11:13;50.42;;;21.13;;
37221;SDS011;23119;51.842;-2.230;2023-04-01T20:16:45;18.92;;;8.93;;
37221;SDS011;23119;51.842;-2.230;2023-04-01T20:19:13;21.85;;;9.32;;
37221;SDS011;23119;51.842;-2.230;2023-04-01T20:21:58;22.40;;;9.90;;
37221;SDS011;23119;51.842;-2.230;2023-04-01T20:24:30;15.75;;;7.43;;
37221;SDS011;23119;51.842;-2.230;2023-04-01T20:27:21;12.32;;;5.13;;
37221;SDS011;23119;51.842;-2.230;2023-04-01T20:32:56;7.18;;;3.13;;
37221;SDS011;23119;51.842;-2.230;2023-04-01T20:36:00;8.45;;;3.03;;
37221;SDS011;23119;51.842;-2.230;2023-04-01T20:41:27;6.35;;;2.00;;
37221;SDS011;23119;51.842;-2.230;2023-04-01T20:44:32;4.07;;;1.20;;
37221;SDS011;23119;51.842;-2.230;2023-04-01T20:49:59;4.25;;;1.33;;
37221;SDS011;23119;51.842;-2.230;2023-04-01T20:52:56;6.70;;;2.30;;
37221;SDS011;23119;51.842;-2.230;2023-04-01T21:17:17;1.85;;;0.47;;
37221;SDS011;23119;51.842;-2.230;2023-04-01T21:22:20;23.02;;;11.32;;
37221;SDS011;23119;51.842;-2.230;2023-04-01T21:24:59;43.63;;;18.15;;
37221;SDS011;23119;51.842;-2.230;2023-04-01T21:28:05;17.42;;;7.03;;
37221;SDS011;23119;51.842;-2.230;2023-04-01T21:38:49;38.97;;;16.30;;
37221;SDS011;23119;51.842;-2.230;2023-04-01T21:52:32;9.95;;;3.83;;
37221;SDS011;23119;51.842;-2.230;2023-04-01T21:58:24;11.85;;;4.35;;
37221;SDS011;23119;51.842;-2.230;2023-04-01T22:04:17;9.88;;;4.47;;
37221;SDS011;23119;51.842;-2.230;2023-04-01T22:12:12;8.30;;;3.47;;
37221;SDS011;23119;51.842;-2.230;2023-04-01T22:17:55;10.68;;;4.53;;
37221;SDS011;23119;51.842;-2.230;2023-04-01T22:20:54;11.73;;;4.60;;
37221;SDS011;23119;51.842;-2.230;2023-04-01T22:36:53;89.40;;;37.60;;
37221;SDS011;23119;51.842;-2.230;2023-04-01T22:50:40;9.35;;;4.07;;
37221;SDS011;23119;51.842;-2.230;2023-04-01T22:53:17;37.92;;;17.67;;
37221;SDS011;23119;51.842;-2.230;2023-04-01T22:55:50;34.75;;;14.85;;
37221;SDS011;23119;51.842;-2.230;2023-04-01T22:58:37;14.45;;;5.50;;
37221;SDS011;23119;51.842;-2.230;2023-04-01T23:01:10;32.40;;;14.32;;
37221;SDS011;23119;51.842;-2.230;2023-04-01T23:03:46;23.13;;;10.20;;
37221;SDS011;23119;51.842;-2.230;2023-04-01T23:09:23;35.22;;;14.70;;
37221;SDS011;23119;51.842;-2.230;2023-04-01T23:11:58;14.85;;;6.45;;
37221;SDS011;23119;51.842;-2.230;2023-04-01T23:14:39;22.55;;;10.10;;
37221;SDS011;23119;51.842;-2.230;2023-04-01T23:20:11;13.02;;;5.93;;
37221;SDS011;23119;51.842;-2.230;2023-04-01T23:28:23;11.18;;;4.25;;
37221;SDS011;23119;51.842;-2.230;2023-04-01T23:31:02;7.10;;;2.55;;
37221;SDS011;23119;51.842;-2.230;2023-04-01T23:33:30;4.72;;;2.17;;
37221;SDS011;23119;51.842;-2.230;2023-04-01T23:36:00;10.85;;;3.75;;
37221;SDS011;23119;51.842;-2.230;2023-04-01T23:38:40;8.25;;;2.25;;
37221;SDS011;23119;51.842;-2.230;2023-04-01T23:41:09;11.23;;;3.45;;
37221;SDS011;23119;51.842;-2.230;2023-04-01T23:43:58;3.15;;;1.40;;
37221;SDS011;23119;51.842;-2.230;2023-04-01T23:46:26;12.82;;;5.35;;
37221;SDS011;23119;51.842;-2.230;2023-04-01T23:48:55;10.27;;;3.53;;
37221;SDS011;23119;51.842;-2.230;2023-04-01T23:51:28;5.10;;;1.95;;
37221;SDS011;23119;51.842;-2.230;2023-04-01T23:54:13;4.63;;;2.33;;
37221;SDS011;23119;51.842;-2.230;2023-04-01T23:56:45;8.30;;;3.13;;
37221;SDS011;23119;51.842;-2.230;2023-04-01T23:59:17;7.43;;;2.50;;
